Time;durP1;ratioP1;P1;durP2;ratioP2;P2;SDS_P1;SDS_P2;PMS_P1;PMS_P2;Temp;Humidity;BMP_temperature;BMP_pressure;BME280_temperature;BME280_humidity;BME280_pressure;Samples;Min_cycle;Max_cycle;Signal;HPM_P1;HPM_P2
2021/10/29 00:02:09;;;;;;;28.17;21.60;;;10.10;99.90;;;;;;5097534;28;20457;-69
2021/10/29 00:04:36;;;;;;;28.47;19.70;;;10.10;1.00;;;;;;5097497;28;20461;-69
2021/10/29 00:07:03;;;;;;;30.50;21.20;;;10.10;1.00;;;;;;5097237;28;20485;-68
2021/10/29 00:09:32;;;;;;;31.80;21.53;;;10.10;1.00;;;;;;5097212;28;20453;-68
2021/10/29 00:11:59;;;;;;;28.27;21.67;;;10.00;1.00;;;;;;5096582;28;20473;-68
2021/10/29 00:14:26;;;;;;;30.50;22.23;;;10.00;1.00;;;;;;5096910;28;20457;-68
2021/10/29 00:16:53;;;;;;;30.50;22.60;;;10.00;1.00;;;;;;5097117;28;20465;-70
2021/10/29 00:19:20;;;;;;;28.07;21.90;;;10.00;1.00;;;;;;5097016;28;20453;-69
2021/10/29 00:21:46;;;;;;;24.60;18.87;;;10.00;1.00;;;;;;5097153;28;20447;-70
2021/10/29 00:24:13;;;;;;;29.77;20.80;;;10.00;1.00;;;;;;5097263;28;20464;-68
2021/10/29 00:26:42;;;;;;;30.43;21.70;;;10.00;1.00;;;;;;5096556;28;20922;-69
2021/10/29 00:29:09;;;;;;;27.60;21.10;;;10.00;1.00;;;;;;5096577;28;20928;-68
2021/10/29 00:31:36;;;;;;;28.90;21.73;;;10.00;1.00;;;;;;5096414;28;20971;-68
2021/10/29 00:34:03;;;;;;;29.87;21.50;;;10.00;1.00;;;;;;5096470;28;20473;-70
2021/10/29 00:36:29;;;;;;;31.00;22.97;;;9.90;1.00;;;;;;5096425;28;20458;-68
2021/10/29 00:38:56;;;;;;;31.60;23.10;;;9.90;1.00;;;;;;5096373;28;20791;-68
2021/10/29 00:41:24;;;;;;;33.47;22.60;;;9.90;1.00;;;;;;5096671;28;20458;-68
2021/10/29 00:43:52;;;;;;;27.60;20.40;;;9.90;1.00;;;;;;5096150;28;20861;-68
2021/10/29 00:46:19;;;;;;;27.80;20.77;;;9.80;1.00;;;;;;5096449;28;20482;-68
2021/10/29 00:48:45;;;;;;;30.87;22.83;;;9.80;1.00;;;;;;5096679;28;20795;-68
2021/10/29 00:51:12;;;;;;;31.13;22.57;;;9.80;1.00;;;;;;5096173;28;20484;-68
2021/10/29 00:53:39;;;;;;;31.10;22.00;;;9.70;1.00;;;;;;5097044;28;20557;-68
2021/10/29 00:56:07;;;;;;;28.53;20.73;;;9.70;1.00;;;;;;5096466;28;20457;-68
2021/10/29 00:58:34;;;;;;;31.37;22.50;;;9.70;1.00;;;;;;5096109;28;20461;-68
2021/10/29 01:01:03;;;;;;;33.50;22.73;;;9.70;1.00;;;;;;5096868;28;20467;-68
2021/10/29 01:03:29;;;;;;;32.03;22.93;;;9.60;1.00;;;;;;5096082;28;20518;-70
2021/10/29 01:05:57;;;;;;;28.33;21.70;;;9.60;1.00;;;;;;5096012;28;20475;-68
2021/10/29 01:08:26;;;;;;;32.80;24.17;;;9.50;1.00;;;;;;5095959;28;20533;-68
2021/10/29 01:10:52;;;;;;;31.10;21.90;;;9.50;1.00;;;;;;5096142;28;20752;-68
2021/10/29 01:13:21;;;;;;;35.80;23.40;;;9.50;1.00;;;;;;5095968;28;20463;-68
2021/10/29 01:15:48;;;;;;;29.60;21.80;;;9.50;1.00;;;;;;5096140;28;20471;-68
2021/10/29 01:18:16;;;;;;;30.83;22.70;;;9.40;1.00;;;;;;5096317;28;20472;-70
2021/10/29 01:20:47;;;;;;;31.73;22.83;;;9.40;1.00;;;;;;5095857;28;20767;-67
2021/10/29 01:23:13;;;;;;;30.00;20.57;;;9.30;1.00;;;;;;5095430;28;20448;-67
2021/10/29 01:25:40;;;;;;;30.53;20.93;;;9.30;1.00;;;;;;5095810;28;20464;-70
2021/10/29 01:28:13;;;;;;;30.47;24.57;;;9.20;1.00;;;;;;5095760;28;20458;-69
2021/10/29 01:30:40;;;;;;;32.23;22.60;;;9.10;1.00;;;;;;5095518;28;20449;-69
2021/10/29 01:33:07;;;;;;;33.13;23.23;;;9.10;1.00;;;;;;5095577;28;20486;-69
2021/10/29 01:35:34;;;;;;;31.50;23.23;;;9.10;1.00;;;;;;5095337;28;20469;-69
2021/10/29 01:38:02;;;;;;;33.80;23.17;;;9.10;1.00;;;;;;5095545;28;20473;-69
2021/10/29 01:40:28;;;;;;;35.80;24.50;;;9.00;1.00;;;;;;5095543;28;20474;-69
2021/10/29 01:42:55;;;;;;;30.33;23.00;;;9.00;1.00;;;;;;5095487;28;20458;-69
2021/10/29 01:45:22;;;;;;;34.47;24.40;;;9.00;1.00;;;;;;5095499;28;20461;-69
2021/10/29 01:47:48;;;;;;;33.73;23.50;;;9.00;1.00;;;;;;5095538;28;20456;-69
2021/10/29 01:50:15;;;;;;;32.37;22.10;;;8.90;1.00;;;;;;5095372;28;20461;-69
2021/10/29 01:52:42;;;;;;;30.93;23.70;;;8.90;1.00;;;;;;5095576;28;20962;-69
2021/10/29 01:55:10;;;;;;;31.97;21.80;;;8.80;1.00;;;;;;5096142;28;20817;-69
2021/10/29 01:57:37;;;;;;;33.47;24.07;;;8.80;1.00;;;;;;5096174;28;20552;-69
2021/10/29 02:00:05;;;;;;;33.60;21.90;;;8.80;1.00;;;;;;5095769;28;20955;-69
2021/10/29 02:02:32;;;;;;;30.63;22.47;;;8.70;1.00;;;;;;5096064;28;20785;-69
2021/10/29 02:04:58;;;;;;;31.73;21.93;;;8.70;1.00;;;;;;5096457;28;20469;-69
2021/10/29 02:07:25;;;;;;;34.57;24.27;;;8.70;1.00;;;;;;5095588;28;20843;-69
2021/10/29 02:09:52;;;;;;;35.60;23.67;;;8.70;1.00;;;;;;5095351;28;20474;-69
2021/10/29 02:12:20;;;;;;;31.13;22.57;;;8.80;1.00;;;;;;5094545;28;20957;-69
2021/10/29 02:14:46;;;;;;;33.20;23.33;;;8.80;1.00;;;;;;5095001;28;20457;-69
2021/10/29 02:17:13;;;;;;;33.43;22.50;;;8.80;1.00;;;;;;5095111;28;20767;-69
2021/10/29 02:19:40;;;;;;;36.03;24.60;;;8.70;1.00;;;;;;5094954;28;20453;-69
2021/10/29 02:22:09;;;;;;;34.73;24.63;;;8.70;1.00;;;;;;5095117;28;20459;-69
2021/10/29 02:24:35;;;;;;;31.87;22.77;;;8.60;1.00;;;;;;5094975;28;20503;-69
2021/10/29 02:27:02;;;;;;;34.40;23.70;;;8.60;1.00;;;;;;5095028;28;20941;-69
2021/10/29 02:29:31;;;;;;;36.40;24.00;;;8.60;1.00;;;;;;5094702;28;20462;-69
2021/10/29 02:31:57;;;;;;;35.33;24.30;;;8.60;1.00;;;;;;5094247;28;20489;-69
2021/10/29 02:34:24;;;;;;;37.63;24.20;;;8.50;1.00;;;;;;5094577;28;20468;-69
2021/10/29 02:36:51;;;;;;;36.10;23.07;;;8.40;1.00;;;;;;5094175;28;20561;-69
2021/10/29 02:39:18;;;;;;;30.83;22.97;;;8.40;1.00;;;;;;5094582;28;20486;-70
2021/10/29 02:41:44;;;;;;;31.77;22.83;;;8.30;1.00;;;;;;5094523;28;20467;-69
2021/10/29 02:44:11;;;;;;;34.40;24.13;;;8.40;1.00;;;;;;5094272;28;20454;-70
2021/10/29 02:46:39;;;;;;;39.37;24.00;;;8.30;1.00;;;;;;5094637;28;20795;-69
2021/10/29 02:49:06;;;;;;;39.53;24.97;;;8.30;1.00;;;;;;5094591;28;20472;-69
2021/10/29 02:51:34;;;;;;;31.20;23.47;;;8.30;1.00;;;;;;5093902;28;20943;-69
2021/10/29 02:54:00;;;;;;;37.77;25.10;;;8.30;1.00;;;;;;5094593;28;20468;-69
2021/10/29 02:56:27;;;;;;;40.10;24.70;;;8.30;1.00;;;;;;5094659;28;20465;-69
2021/10/29 02:58:54;;;;;;;38.70;26.23;;;8.20;1.80;;;;;;5094185;28;20454;-69
2021/10/29 03:01:21;;;;;;;37.07;24.70;;;8.20;4.20;;;;;;5094668;28;20469;-70
2021/10/29 03:03:49;;;;;;;37.60;27.17;;;8.20;3.30;;;;;;5095220;28;20757;-69
2021/10/29 03:06:15;;;;;;;31.97;23.37;;;8.20;1.70;;;;;;5094615;28;20468;-70
2021/10/29 03:08:42;;;;;;;35.40;25.67;;;8.20;2.30;;;;;;5093932;28;20935;-69
2021/10/29 03:11:09;;;;;;;37.90;23.97;;;8.20;1.00;;;;;;5094120;28;20481;-69
2021/10/29 03:13:35;;;;;;;36.87;24.60;;;8.10;9.30;;;;;;5094375;28;20485;-69
2021/10/29 03:16:02;;;;;;;36.80;24.90;;;8.10;10.70;;;;;;5094173;28;20917;-69
2021/10/29 03:18:29;;;;;;;40.03;26.30;;;8.10;12.50;;;;;;5094549;28;20467;-69
2021/10/29 03:20:57;;;;;;;39.17;26.20;;;8.10;13.80;;;;;;5094296;28;20477;-70
2021/10/29 03:23:24;;;;;;;34.53;25.20;;;8.00;16.00;;;;;;5094094;28;20457;-69
2021/10/29 03:25:50;;;;;;;37.00;24.50;;;8.00;27.40;;;;;;5094208;28;20465;-69
2021/10/29 03:28:17;;;;;;;35.07;24.53;;;8.00;30.60;;;;;;5094268;28;20902;-69
2021/10/29 03:30:44;;;;;;;35.37;26.20;;;8.00;28.00;;;;;;5093774;28;20902;-69
2021/10/29 03:33:11;;;;;;;36.27;25.40;;;8.00;29.90;;;;;;5094173;28;20476;-69
2021/10/29 03:35:37;;;;;;;38.03;24.50;;;7.90;30.80;;;;;;5094004;28;20515;-69
2021/10/29 03:38:23;;;;;;;36.37;25.30;;;7.80;48.10;;;;;;5094199;28;20458;-69
2021/10/29 03:40:54;;;;;;;31.03;23.27;;;7.80;54.40;;;;;;5094068;28;20489;-69
2021/10/29 03:43:25;;;;;;;36.27;24.70;;;7.80;52.70;;;;;;5093966;28;20761;-69
2021/10/29 03:45:56;;;;;;;39.23;24.90;;;7.80;58.50;;;;;;5093806;28;20467;-69
2021/10/29 03:48:29;;;;;;;34.87;24.10;;;7.70;78.90;;;;;;5097675;28;20824;-69
2021/10/29 03:51:07;;;;;;;37.10;24.93;;;7.70;77.60;;;;;;5097599;28;20444;-69
2021/10/29 03:53:41;;;;;;;35.93;25.20;;;7.70;85.60;;;;;;5097919;28;20459;-69
2021/10/29 03:56:16;;;;;;;35.10;25.57;;;7.70;90.90;;;;;;5097503;28;20441;-69
2021/10/29 03:58:43;;;;;;;34.80;23.30;;;7.70;84.20;;;;;;5097492;28;20456;-69
2021/10/29 04:01:10;;;;;;;40.30;25.43;;;7.70;86.30;;;;;;5097431;28;20526;-69
2021/10/29 04:03:36;;;;;;;37.13;25.87;;;7.70;89.70;;;;;;5097105;28;20755;-69
2021/10/29 04:06:03;;;;;;;39.77;24.87;;;7.60;95.20;;;;;;5097450;28;20473;-70
2021/10/29 04:08:30;;;;;;;36.27;24.77;;;7.60;99.20;;;;;;5097372;28;20929;-69
2021/10/29 04:10:58;;;;;;;35.67;24.57;;;7.60;99.90;;;;;;5097179;28;20789;-69
2021/10/29 04:13:26;;;;;;;36.90;24.50;;;7.60;99.90;;;;;;5097341;28;20490;-69
2021/10/29 04:15:53;;;;;;;35.80;24.47;;;7.60;99.90;;;;;;5097181;28;20459;-69
2021/10/29 04:18:20;;;;;;;32.70;23.17;;;7.50;99.90;;;;;;5097208;28;20784;-69
2021/10/29 04:20:47;;;;;;;35.20;24.20;;;7.50;99.90;;;;;;5096727;28;20457;-69
2021/10/29 04:23:14;;;;;;;42.00;26.57;;;7.50;99.90;;;;;;5097253;28;20464;-69
2021/10/29 04:25:40;;;;;;;39.50;24.57;;;7.50;99.90;;;;;;5096839;28;20796;-69
2021/10/29 04:28:10;;;;;;;34.40;22.73;;;7.50;99.90;;;;;;5097732;28;20795;-69
2021/10/29 04:30:37;;;;;;;33.03;23.73;;;7.50;99.90;;;;;;5096614;28;20936;-69
2021/10/29 04:33:07;;;;;;;34.10;24.80;;;7.50;99.90;;;;;;5096791;28;20480;-69
2021/10/29 04:35:34;;;;;;;36.40;25.20;;;7.50;99.90;;;;;;5097394;28;20456;-69
2021/10/29 04:38:01;;;;;;;33.17;24.30;;;7.50;99.90;;;;;;5096622;28;20461;-69
2021/10/29 04:40:28;;;;;;;38.77;24.53;;;7.50;99.90;;;;;;5097855;28;20467;-69
2021/10/29 04:42:55;;;;;;;31.00;23.60;;;7.50;99.90;;;;;;5097358;28;20471;-69
2021/10/29 04:45:23;;;;;;;36.23;24.03;;;7.50;99.90;;;;;;5097767;28;20831;-69
2021/10/29 04:47:50;;;;;;;31.50;22.97;;;7.50;99.90;;;;;;5097860;28;20471;-69
2021/10/29 04:50:16;;;;;;;39.40;25.33;;;7.50;99.90;;;;;;5097950;28;20797;-69
2021/10/29 04:52:44;;;;;;;36.00;24.83;;;7.40;99.90;;;;;;5097188;28;20510;-69
2021/10/29 04:55:10;;;;;;;42.50;25.50;;;7.40;99.90;;;;;;5097028;28;20534;-69
2021/10/29 04:57:37;;;;;;;36.33;24.70;;;7.40;99.90;;;;;;5096631;28;20473;-69
2021/10/29 05:00:06;;;;;;;34.60;23.87;;;7.30;99.90;;;;;;5096745;28;20468;-69
2021/10/29 05:02:35;;;;;;;39.03;24.60;;;7.30;99.90;;;;;;5096492;28;20457;-69
2021/10/29 05:05:03;;;;;;;33.73;26.00;;;7.30;99.90;;;;;;5096353;28;20457;-69
2021/10/29 05:07:30;;;;;;;36.90;25.10;;;7.30;99.90;;;;;;5096420;28;20479;-69
2021/10/29 05:09:57;;;;;;;38.30;25.80;;;7.20;99.90;;;;;;5095927;28;20936;-69
2021/10/29 05:12:25;;;;;;;38.47;24.63;;;7.20;99.90;;;;;;5096265;28;20782;-69
2021/10/29 05:14:52;;;;;;;39.37;25.23;;;7.20;99.90;;;;;;5095930;28;20468;-69
2021/10/29 05:17:19;;;;;;;36.63;25.90;;;7.20;99.90;;;;;;5096335;28;20911;-70
2021/10/29 05:19:47;;;;;;;38.00;26.30;;;7.10;99.90;;;;;;5095981;28;20781;-69
2021/10/29 05:22:14;;;;;;;37.50;27.00;;;7.10;99.90;;;;;;5096127;28;20459;-69
2021/10/29 05:24:40;;;;;;;36.47;25.03;;;7.10;99.90;;;;;;5095995;28;20464;-69
2021/10/29 05:27:10;;;;;;;38.97;26.73;;;7.00;99.90;;;;;;5096068;28;20476;-69
2021/10/29 05:29:37;;;;;;;35.70;24.47;;;7.00;99.90;;;;;;5096009;28;20502;-69
2021/10/29 05:32:04;;;;;;;35.77;24.33;;;7.10;99.90;;;;;;5095497;28;20460;-70
2021/10/29 05:34:31;;;;;;;39.63;26.17;;;7.00;99.90;;;;;;5095596;28;20481;-69
2021/10/29 05:36:59;;;;;;;43.27;26.00;;;7.00;99.90;;;;;;5095470;28;20461;-68
2021/10/29 05:39:25;;;;;;;40.43;26.60;;;6.90;99.90;;;;;;5095205;28;20492;-69
2021/10/29 05:41:52;;;;;;;38.57;25.17;;;6.90;99.90;;;;;;5095846;28;20789;-69
2021/10/29 05:44:20;;;;;;;39.43;26.10;;;6.90;99.90;;;;;;5095236;28;20453;-69
2021/10/29 05:46:47;;;;;;;40.90;25.93;;;6.90;99.90;;;;;;5095249;28;20464;-69
2021/10/29 05:49:15;;;;;;;39.87;26.30;;;6.80;99.90;;;;;;5094908;28;20925;-70
2021/10/29 05:51:45;;;;;;;36.00;25.43;;;6.80;99.90;;;;;;5095198;28;20472;-69
2021/10/29 05:54:34;;;;;;;37.77;26.13;;;6.80;99.90;;;;;;5094788;28;20488;-69
2021/10/29 05:57:01;;;;;;;37.27;24.53;;;6.80;99.90;;;;;;5095374;28;20502;-69
2021/10/29 05:59:28;;;;;;;41.70;25.53;;;6.80;99.90;;;;;;5094657;28;20465;-69
2021/10/29 06:01:55;;;;;;;41.63;26.10;;;6.80;99.90;;;;;;5095212;28;20465;-69
2021/10/29 06:04:22;;;;;;;39.97;25.20;;;6.80;99.90;;;;;;5095112;28;20514;-69
2021/10/29 06:06:48;;;;;;;36.40;24.97;;;6.80;99.90;;;;;;5095160;28;20456;-69
2021/10/29 06:09:16;;;;;;;38.83;25.33;;;6.80;99.90;;;;;;5094877;28;20497;-68
2021/10/29 06:11:44;;;;;;;35.93;24.80;;;6.80;99.90;;;;;;5094855;28;20449;-69
2021/10/29 06:14:11;;;;;;;32.70;23.83;;;6.80;99.90;;;;;;5094840;28;20497;-69
2021/10/29 06:16:37;;;;;;;33.50;24.80;;;6.80;99.90;;;;;;5094561;28;20472;-69
2021/10/29 06:19:06;;;;;;;39.87;26.57;;;6.90;99.90;;;;;;5095393;28;20466;-69
2021/10/29 06:21:36;;;;;;;44.70;25.80;;;6.90;99.90;;;;;;5094681;28;20461;-69
2021/10/29 06:24:06;;;;;;;39.17;25.17;;;6.90;99.90;;;;;;5094833;28;20440;-68
2021/10/29 06:26:43;;;;;;;40.10;25.37;;;6.90;99.90;;;;;;5094960;28;20445;-69
2021/10/29 06:29:09;;;;;;;36.93;24.93;;;6.90;99.90;;;;;;5094753;28;20445;-68
2021/10/29 06:31:36;;;;;;;36.93;24.73;;;7.00;99.90;;;;;;5094764;28;20881;-69
2021/10/29 06:34:03;;;;;;;34.70;24.43;;;6.90;99.90;;;;;;5094600;28;20486;-69
2021/10/29 06:36:30;;;;;;;39.20;25.47;;;7.00;99.90;;;;;;5094344;28;20453;-69
2021/10/29 06:38:58;;;;;;;39.27;24.33;;;7.00;99.90;;;;;;5094032;28;20490;-69
2021/10/29 06:41:25;;;;;;;35.93;24.73;;;7.00;99.90;;;;;;5094569;28;20457;-69
2021/10/29 06:44:05;;;;;;;36.70;24.57;;;7.00;99.90;;;;;;5094608;28;20467;-70
2021/10/29 06:46:37;;;;;;;42.50;25.47;;;7.00;99.90;;;;;;5094411;28;20755;-69
2021/10/29 07:00:15;;;;;;;38.40;24.17;;;7.00;99.90;;;;;;5094629;28;20443;-69
2021/10/29 07:03:11;;;;;;;37.03;24.37;;;7.00;99.90;;;;;;5094462;28;20447;-68
2021/10/29 07:41:19;;;;;;;32.17;23.53;;;7.30;99.90;;;;;;5097762;28;20495;-68
2021/10/29 07:43:50;;;;;;;31.63;22.43;;;7.30;99.90;;;;;;5097916;28;20831;-69
2021/10/29 07:46:16;;;;;;;29.10;22.50;;;7.30;99.90;;;;;;5098046;28;20815;-69
2021/10/29 07:48:45;;;;;;;37.53;23.53;;;7.30;99.90;;;;;;5097480;28;20462;-70
2021/10/29 07:51:12;;;;;;;35.47;24.53;;;7.40;99.90;;;;;;5098175;28;20454;-70
2021/10/29 07:53:39;;;;;;;31.73;22.77;;;7.50;99.90;;;;;;5097306;28;20817;-69
2021/10/29 07:56:07;;;;;;;32.70;23.93;;;7.50;91.20;;;;;;5097979;28;20854;-69
2021/10/29 07:58:35;;;;;;;34.37;22.57;;;7.50;67.90;;;;;;5097261;28;20472;-69
2021/10/29 08:01:02;;;;;;;35.33;24.20;;;7.60;68.00;;;;;;5097487;28;20462;-69
2021/10/29 08:03:30;;;;;;;34.23;23.53;;;7.60;48.50;;;;;;5096477;28;20545;-69
2021/10/29 08:05:58;;;;;;;32.00;22.07;;;7.70;32.30;;;;;;5097182;28;20504;-69
2021/10/29 08:08:25;;;;;;;35.30;22.30;;;7.70;18.40;;;;;;5097266;28;20464;-69
2021/10/29 08:10:51;;;;;;;31.87;23.20;;;7.80;13.30;;;;;;5097118;28;20484;-69
2021/10/29 08:13:18;;;;;;;31.53;22.43;;;7.90;9.30;;;;;;5096983;28;20477;-69
2021/10/29 08:15:53;;;;;;;35.63;24.53;;;7.90;1.00;;;;;;5097022;28;20458;-69
2021/10/29 08:18:20;;;;;;;32.63;23.27;;;7.90;1.00;;;;;;5096765;28;20444;-68
2021/10/29 08:20:47;;;;;;;33.10;23.20;;;8.00;1.00;;;;;;5097050;28;20933;-69
2021/10/29 08:23:15;;;;;;;35.30;22.13;;;8.10;1.00;;;;;;5096967;28;20473;-70
2021/10/29 08:25:42;;;;;;;31.63;22.67;;;8.10;1.00;;;;;;5096998;28;20454;-70
2021/10/29 08:28:09;;;;;;;28.40;22.53;;;8.20;1.00;;;;;;5096235;28;20524;-70
2021/10/29 08:30:36;;;;;;;29.40;21.20;;;8.30;1.00;;;;;;5096632;28;20557;-71
2021/10/29 08:33:02;;;;;;;31.17;22.90;;;8.30;1.00;;;;;;5096525;28;20809;-71
2021/10/29 08:35:29;;;;;;;30.13;21.87;;;8.40;1.00;;;;;;5096595;28;20454;-70
2021/10/29 08:37:56;;;;;;;32.30;21.07;;;8.40;1.00;;;;;;5096543;28;20454;-69
2021/10/29 08:40:25;;;;;;;32.13;23.53;;;8.50;1.00;;;;;;5096402;28;20492;-70
2021/10/29 08:42:52;;;;;;;27.30;21.20;;;8.50;1.00;;;;;;5096703;28;20458;-70
2021/10/29 08:45:19;;;;;;;29.63;21.93;;;8.60;1.00;;;;;;5096367;28;20455;-70
2021/10/29 08:47:47;;;;;;;35.20;21.57;;;8.70;1.00;;;;;;5096383;28;20868;-69
2021/10/29 08:50:18;;;;;;;33.90;22.87;;;8.80;1.00;;;;;;5096352;28;20489;-69
2021/10/29 08:52:46;;;;;;;31.30;21.20;;;8.90;1.00;;;;;;5096239;28;20481;-70
2021/10/29 08:55:16;;;;;;;28.40;20.60;;;9.00;1.00;;;;;;5096280;28;20477;-70
2021/10/29 08:57:48;;;;;;;30.33;21.70;;;9.00;1.00;;;;;;5096013;28;20459;-70
2021/10/29 09:00:17;;;;;;;27.03;19.80;;;9.10;99.90;;;;;;5096495;28;20468;-71
2021/10/29 09:02:52;;;;;;;30.47;21.47;;;9.20;99.90;;;;;;5096259;28;20457;-69
2021/10/29 09:05:25;;;;;;;26.57;19.60;;;9.30;99.90;;;;;;5096474;28;20512;-70
2021/10/29 09:08:11;;;;;;;32.97;20.80;;;9.40;99.90;;;;;;5095975;28;20450;-69
2021/10/29 09:11:04;;;;;;;26.17;19.47;;;9.40;99.90;;;;;;5096143;28;20774;-69
2021/10/29 09:16:54;;;;;;;30.20;19.47;;;9.50;99.90;;;;;;5096090;28;20447;-70
2021/10/29 09:31:24;;;;;;;26.40;19.30;;;9.80;99.90;;;;;;5095761;28;20500;-70
2021/10/29 09:33:52;;;;;;;25.10;18.10;;;10.10;99.90;;;;;;5095250;28;20961;-69
2021/10/29 09:36:27;;;;;;;27.63;20.57;;;10.20;99.90;;;;;;5095822;28;20457;-70
2021/10/29 09:38:59;;;;;;;24.50;18.03;;;10.30;99.90;;;;;;5096075;28;20616;-70
2021/10/29 09:41:26;;;;;;;23.80;17.80;;;10.40;99.90;;;;;;5095204;28;20913;-71
2021/10/29 09:43:58;;;;;;;24.10;19.07;;;10.50;99.90;;;;;;5094843;28;20465;-70
2021/10/29 09:46:37;;;;;;;28.90;19.97;;;10.50;99.90;;;;;;5095262;28;20461;-70
2021/10/29 09:49:13;;;;;;;27.10;19.10;;;10.60;99.90;;;;;;5095041;28;20445;-70
2021/10/29 09:51:51;;;;;;;23.93;18.97;;;10.70;99.90;;;;;;5095162;28;20463;-72
2021/10/29 09:54:20;;;;;;;22.13;17.57;;;10.80;99.90;;;;;;5095279;28;20497;-69
2021/10/29 09:56:52;;;;;;;23.70;17.87;;;11.00;99.90;;;;;;5094754;28;20951;-70
2021/10/29 09:59:19;;;;;;;31.03;18.43;;;11.10;99.90;;;;;;5094970;28;20473;-70
2021/10/29 10:01:47;;;;;;;22.23;18.77;;;11.10;99.90;;;;;;5095199;28;20458;-70
2021/10/29 10:04:17;;;;;;;24.30;18.40;;;11.20;99.90;;;;;;5094520;28;20952;-71
2021/10/29 10:06:45;;;;;;;23.03;17.80;;;11.30;99.90;;;;;;5094863;28;20518;-71
2021/10/29 10:09:15;;;;;;;24.90;17.77;;;11.40;99.90;;;;;;5094469;28;20465;-70
2021/10/29 10:11:45;;;;;;;24.20;18.00;;;11.50;99.90;;;;;;5094388;28;20438;-71
2021/10/29 10:14:14;;;;;;;23.07;17.53;;;11.60;99.90;;;;;;5095335;28;20566;-69
2021/10/29 10:16:43;;;;;;;21.10;16.50;;;11.70;99.90;;;;;;5094718;28;20482;-70
2021/10/29 10:19:11;;;;;;;21.80;16.60;;;11.80;99.90;;;;;;5094765;28;20468;-70
2021/10/29 10:21:41;;;;;;;19.47;15.60;;;11.90;99.90;;;;;;5094334;28;20468;-70
2021/10/29 10:24:12;;;;;;;23.70;17.87;;;11.90;99.90;;;;;;5095217;28;20455;-70
2021/10/29 10:27:04;;;;;;;20.30;15.77;;;12.00;99.90;;;;;;5094800;28;20775;-69
2021/10/29 10:29:50;;;;;;;23.30;16.27;;;12.00;99.90;;;;;;5094704;28;20459;-69
2021/10/29 10:43:37;;;;;;;23.57;17.43;;;12.60;99.90;;;;;;5094630;28;20758;-70
2021/10/29 10:46:09;;;;;;;22.10;17.43;;;12.70;99.90;;;;;;5094088;28;20948;-70
2021/10/29 10:48:42;;;;;;;22.23;17.80;;;12.80;99.90;;;;;;5094736;28;20529;-69
2021/10/29 10:51:43;;;;;;;25.13;17.60;;;12.90;99.90;;;;;;5094220;28;20896;-70
2021/10/29 10:54:15;;;;;;;20.33;16.20;;;13.00;99.90;;;;;;5094556;28;20471;-70
2021/10/29 10:56:59;;;;;;;20.60;17.00;;;13.00;99.90;;;;;;5097466;28;20437;-70
2021/10/29 10:59:34;;;;;;;23.07;17.33;;;13.10;99.90;;;;;;5098647;28;20435;-69
2021/10/29 11:02:37;;;;;;;28.40;17.93;;;13.10;99.90;;;;;;5098289;28;20447;-70
2021/10/29 11:10:56;;;;;;;22.83;17.30;;;13.40;99.90;;;;;;5098431;28;20441;-71
2021/10/29 11:13:23;;;;;;;26.07;17.37;;;13.50;99.90;;;;;;5098915;28;20456;-70
2021/10/29 11:16:01;;;;;;;22.30;17.30;;;13.70;99.90;;;;;;5098426;28;20478;-70
2021/10/29 11:18:33;;;;;;;26.00;17.40;;;13.80;99.90;;;;;;5098403;28;20468;-70
2021/10/29 11:21:18;;;;;;;22.27;16.90;;;14.00;99.90;;;;;;5098010;28;20438;-70
2021/10/29 11:23:56;;;;;;;19.60;16.00;;;14.10;99.90;;;;;;5098506;28;20455;-70
2021/10/29 11:26:30;;;;;;;20.40;16.03;;;14.10;99.90;;;;;;5098356;28;20528;-70
2021/10/29 11:29:02;;;;;;;21.13;16.43;;;14.20;99.90;;;;;;5097835;28;20437;-70
2021/10/29 11:31:31;;;;;;;22.43;18.00;;;14.40;99.90;;;;;;5097802;28;20461;-70
2021/10/29 11:34:02;;;;;;;19.80;15.83;;;14.60;99.90;;;;;;5098024;28;20745;-70
2021/10/29 11:36:31;;;;;;;23.20;17.87;;;14.70;99.90;;;;;;5097710;28;20452;-69
2021/10/29 11:39:04;;;;;;;20.67;15.90;;;14.90;99.90;;;;;;5097936;28;20485;-69
2021/10/29 11:41:32;;;;;;;18.20;14.80;;;15.10;99.90;;;;;;5097678;28;20452;-69
2021/10/29 11:44:02;;;;;;;20.80;16.20;;;15.20;99.90;;;;;;5097974;28;20900;-70
2021/10/29 11:46:30;;;;;;;17.63;15.17;;;15.50;99.90;;;;;;5097774;28;20523;-70
2021/10/29 11:48:59;;;;;;;19.90;15.93;;;16.10;99.90;;;;;;5097794;28;20490;-70
2021/10/29 11:51:30;;;;;;;16.37;13.07;;;17.20;99.90;;;;;;5097428;28;20453;-70
2021/10/29 11:54:00;;;;;;;29.00;24.60;;;18.70;99.90;;;;;;5097668;28;20458;-70
2021/10/29 11:56:39;;;;;;;16.00;13.67;;;20.30;99.90;;;;;;5097800;28;20461;-70
2021/10/29 11:59:49;;;;;;;17.33;13.20;;;21.90;99.90;;;;;;5097598;28;20845;-70
2021/10/29 12:07:47;;;;;;;17.73;12.47;;;25.80;98.10;;;;;;5099378;28;20511;-69
2021/10/29 12:10:19;;;;;;;15.13;12.17;;;26.70;1.00;;;;;;5098795;28;20453;-68
2021/10/29 12:12:50;;;;;;;12.10;10.83;;;26.80;1.00;;;;;;5099174;28;20446;-70
2021/10/29 12:15:21;;;;;;;15.60;13.97;;;27.10;1.00;;;;;;5098131;28;20548;-69
2021/10/29 12:17:52;;;;;;;16.50;12.53;;;27.80;1.00;;;;;;5096922;28;20507;-69
2021/10/29 12:20:23;;;;;;;15.53;13.93;;;28.60;1.00;;;;;;5096689;28;20679;-69
2021/10/29 12:22:54;;;;;;;14.10;12.80;;;29.40;1.00;;;;;;5096882;28;20461;-70
2021/10/29 12:25:27;;;;;;;15.17;13.67;;;30.00;1.00;;;;;;5096903;28;20726;-69
2021/10/29 12:28:00;;;;;;;13.83;12.50;;;30.60;1.00;;;;;;5096859;28;20434;-69
2021/10/29 12:30:32;;;;;;;15.23;13.80;;;31.00;1.00;;;;;;5096542;28;20442;-70
2021/10/29 12:33:26;;;;;;;13.37;12.07;;;31.30;1.00;;;;;;5096638;28;20507;-70
2021/10/29 12:52:55;;;;;;;15.13;13.53;;;31.80;1.00;;;;;;5096055;28;20465;-70
2021/10/29 13:03:44;;;;;;;13.50;11.60;;;32.00;1.00;;;;;;5095999;28;20488;-70
2021/10/29 13:06:15;;;;;;;14.17;12.23;;;31.80;1.00;;;;;;5095920;28;20477;-70
2021/10/29 13:08:42;;;;;;;12.67;11.37;;;31.80;1.00;;;;;;5095968;28;20453;-70
2021/10/29 13:11:13;;;;;;;14.43;13.03;;;31.90;1.00;;;;;;5095549;28;20480;-70
2021/10/29 13:13:41;;;;;;;15.17;13.50;;;32.10;1.00;;;;;;5095680;28;20484;-70
2021/10/29 13:16:11;;;;;;;15.17;13.63;;;32.10;1.00;;;;;;5095973;28;20539;-70
2021/10/29 13:18:50;;;;;;;14.23;12.97;;;32.00;1.00;;;;;;5095228;28;20849;-70
2021/10/29 13:21:53;;;;;;;15.23;13.73;;;31.80;1.00;;;;;;5095563;28;20448;-70
2021/10/29 13:27:31;;;;;;;15.97;14.40;;;31.00;1.00;;;;;;5095722;28;20497;-70
2021/10/29 13:52:27;;;;;;;14.20;12.90;;;29.90;1.00;;;;;;5095052;28;20484;-69
2021/10/29 13:55:01;;;;;;;17.07;13.20;;;30.00;1.00;;;;;;5095431;28;20492;-70
2021/10/29 14:00:42;;;;;;;15.70;14.00;;;29.80;1.00;;;;;;5095835;28;20552;-70
2021/10/29 14:17:06;;;;;;;13.47;12.23;;;28.30;1.00;;;;;;5094701;28;20547;-69
2021/10/29 14:30:49;;;;;;;11.93;10.93;;;28.30;1.00;;;;;;5094802;28;20721;-70
2021/10/29 14:33:19;;;;;;;13.40;12.10;;;28.10;1.00;;;;;;5094539;28;20475;-70
2021/10/29 14:35:51;;;;;;;13.47;12.10;;;28.00;1.00;;;;;;5094820;28;20482;-70
2021/10/29 14:38:26;;;;;;;14.53;13.20;;;27.80;1.00;;;;;;5094795;28;20442;-69
2021/10/29 14:40:57;;;;;;;13.30;12.20;;;27.70;1.00;;;;;;5096655;28;20828;-70
2021/10/29 14:43:27;;;;;;;12.53;11.33;;;27.40;1.00;;;;;;5098262;28;20458;-69
2021/10/29 14:46:02;;;;;;;14.53;13.13;;;27.20;1.00;;;;;;5103037;28;20506;-70
2021/10/29 14:48:40;;;;;;;15.00;13.60;;;27.00;1.00;;;;;;5101091;28;20438;-70
2021/10/29 15:02:40;;;;;;;15.37;13.80;;;25.10;1.00;;;;;;5095058;28;20425;-69
2021/10/29 15:27:42;;;;;;;18.50;16.60;;;18.30;1.00;;;;;;5082969;28;20456;-70
2021/10/29 15:30:11;;;;;;;17.80;15.67;;;17.80;1.00;;;;;;5094280;28;20438;-70
2021/10/29 15:33:13;;;;;;;17.53;15.73;;;17.40;1.00;;;;;;5094369;28;20457;-70
2021/10/29 15:41:32;;;;;;;24.30;20.13;;;16.40;1.00;;;;;;5094020;28;20429;-70
2021/10/29 15:44:09;;;;;;;21.53;18.33;;;16.20;1.00;;;;;;5097300;28;20455;-70
2021/10/29 15:46:41;;;;;;;19.70;17.13;;;15.90;99.90;;;;;;5097212;28;20916;-70
2021/10/29 15:49:20;;;;;;;17.40;15.60;;;15.70;99.90;;;;;;5097635;28;20441;-70
2021/10/29 15:51:54;;;;;;;21.27;17.87;;;15.50;99.90;;;;;;5097828;28;20507;-71
2021/10/29 15:54:21;;;;;;;20.43;17.63;;;15.30;99.90;;;;;;5098006;28;20438;-70
2021/10/29 15:56:51;;;;;;;20.23;18.10;;;15.10;99.90;;;;;;5097153;28;20477;-70
2021/10/29 15:59:36;;;;;;;19.37;16.70;;;15.00;99.90;;;;;;5097431;28;20545;-70
2021/10/29 16:02:13;;;;;;;19.47;17.50;;;14.90;99.90;;;;;;5097414;28;20499;-70
2021/10/29 16:18:34;;;;;;;29.13;20.70;;;14.30;99.90;;;;;;5092031;28;20464;-70
2021/10/29 16:21:01;;;;;;;23.13;19.90;;;14.20;99.90;;;;;;5097134;28;20755;-70
2021/10/29 16:23:29;;;;;;;25.57;20.13;;;14.10;99.90;;;;;;5097145;28;20464;-70
2021/10/29 16:25:59;;;;;;;24.90;18.03;;;14.10;99.90;;;;;;5097427;28;20817;-70
2021/10/29 16:28:29;;;;;;;24.67;19.47;;;14.00;99.90;;;;;;5097351;28;20495;-70
2021/10/29 16:30:58;;;;;;;28.03;19.63;;;13.90;99.90;;;;;;5097054;28;20921;-70